createdAt,value
2019-03-01T00:02:12.352Z,99534.00
2019-03-01T00:05:20.522Z,99521.00
2019-03-01T00:08:31.284Z,99533.00
2019-03-01T00:11:23.224Z,99534.00
2019-03-01T00:14:21.545Z,99524.00
2019-03-01T00:17:33.297Z,99536.00
2019-03-01T00:20:47.752Z,99528.00
2019-03-01T00:23:57.850Z,99533.00
2019-03-01T00:26:59.469Z,99532.00
2019-03-01T00:30:02.346Z,99533.00
2019-03-01T00:32:54.969Z,99534.00
2019-03-01T00:36:00.733Z,99527.00
2019-03-01T00:39:07.164Z,99535.00
2019-03-01T00:41:48.125Z,99525.00
2019-03-01T00:44:31.196Z,99523.00
2019-03-01T00:47:13.672Z,99534.00
2019-03-01T00:49:55.996Z,99529.00
2019-03-01T00:52:32.435Z,99531.00
2019-03-01T00:55:08.674Z,99524.00
2019-03-01T00:57:51.448Z,99520.00
2019-03-01T01:00:47.083Z,99521.00
2019-03-01T01:03:22.886Z,99514.00
2019-03-01T01:06:05.853Z,99511.00
2019-03-01T01:08:41.431Z,99509.00
2019-03-01T01:11:17.517Z,99512.00
2019-03-01T01:13:59.998Z,99510.00
2019-03-01T01:16:41.709Z,99507.00
2019-03-01T01:19:24.811Z,99517.00
2019-03-01T01:22:07.377Z,99510.00
2019-03-01T01:24:50.186Z,99515.00
2019-03-01T01:27:33.252Z,99504.00
2019-03-01T01:30:08.956Z,99510.00
2019-03-01T01:32:44.627Z,99510.00
2019-03-01T01:35:27.148Z,99513.00
2019-03-01T01:38:10.509Z,99505.00
2019-03-01T01:40:59.926Z,99509.00
2019-03-01T01:43:41.832Z,99509.00
2019-03-01T01:46:24.840Z,99509.00
2019-03-01T01:49:14.085Z,99514.00
2019-03-01T01:51:56.591Z,99505.00
2019-03-01T01:54:39.706Z,99514.00
2019-03-01T01:57:21.513Z,99520.00
2019-03-01T01:59:57.125Z,99514.00
2019-03-01T02:02:40.183Z,99512.00
2019-03-01T02:05:16.363Z,99515.00
2019-03-01T02:07:57.987Z,99508.00
2019-03-01T02:10:40.370Z,99526.00
2019-03-01T02:13:28.890Z,99522.00
2019-03-01T02:16:11.205Z,99516.00
2019-03-01T02:18:46.732Z,99516.00
2019-03-01T02:21:29.756Z,99519.00
2019-03-01T02:24:05.216Z,99513.00
2019-03-01T02:26:47.800Z,99507.00
2019-03-01T02:29:37.422Z,99517.00
2019-03-01T02:32:26.741Z,99512.00
2019-03-01T02:35:02.660Z,99505.00
2019-03-01T02:37:45.568Z,99515.00
2019-03-01T02:40:34.460Z,99509.00
2019-03-01T02:43:10.001Z,99512.00
2019-03-01T02:45:52.542Z,99516.00
2019-03-01T02:48:34.910Z,99519.00
2019-03-01T02:51:10.937Z,99513.00
2019-03-01T02:53:46.889Z,99519.00
2019-03-01T02:56:29.351Z,99528.00
2019-03-01T02:59:05.685Z,99522.00
2019-03-01T03:01:48.360Z,99530.00
2019-03-01T03:04:24.117Z,99529.00
2019-03-01T03:07:08.211Z,99534.00
2019-03-01T03:09:57.847Z,99527.00
2019-03-01T03:12:40.187Z,99538.00
2019-03-01T03:15:29.661Z,99550.00
2019-03-01T03:18:12.251Z,99534.00
2019-03-01T03:20:48.431Z,99541.00
2019-03-01T03:23:30.825Z,99540.00
2019-03-01T03:26:07.180Z,99553.00
2019-03-01T03:28:48.884Z,99555.00
2019-03-01T03:31:24.926Z,99541.00
2019-03-01T03:34:07.287Z,99546.00
2019-03-01T03:36:50.079Z,99546.00
2019-03-01T03:39:31.832Z,99548.00
2019-03-01T03:42:14.455Z,99547.00
2019-03-01T03:44:50.886Z,99547.00
2019-03-01T03:47:32.981Z,99548.00
2019-03-01T03:50:25.713Z,99546.00
2019-03-01T03:53:08.051Z,99537.00
2019-03-01T03:55:51.061Z,99541.00
2019-03-01T03:58:40.264Z,99530.00
2019-03-01T04:01:29.757Z,99531.00
2019-03-01T04:04:19.126Z,99538.00
2019-03-01T04:06:54.967Z,99534.00
2019-03-01T04:09:37.956Z,99542.00
2019-03-01T04:12:20.861Z,99547.00
2019-03-01T04:15:09.670Z,99543.00
2019-03-01T04:17:58.428Z,99549.00
2019-03-01T04:20:48.221Z,99553.00
2019-03-01T04:23:37.795Z,99556.00
2019-03-01T04:26:27.570Z,99563.00
2019-03-01T04:29:09.206Z,99562.00
2019-03-01T04:31:51.672Z,99566.00
2019-03-01T04:34:40.420Z,99565.00
2019-03-01T04:37:29.418Z,99565.00
2019-03-01T04:40:21.019Z,99564.00
2019-03-01T04:43:09.697Z,99580.00
2019-03-01T04:45:59.453Z,99565.00
2019-03-01T04:48:48.905Z,99576.00
2019-03-01T04:51:40.328Z,99565.00
2019-03-01T04:54:22.260Z,99567.00
2019-03-01T04:57:11.024Z,99563.00
2019-03-01T04:59:54.513Z,99568.00
2019-03-01T05:02:24.023Z,99579.00
2019-03-01T05:05:13.660Z,99574.00
2019-03-01T05:07:49.961Z,99583.00
2019-03-01T05:10:32.854Z,99592.00
2019-03-01T05:13:15.317Z,99583.00
2019-03-01T05:15:51.046Z,99595.00
2019-03-01T05:18:34.214Z,99579.00
2019-03-01T05:21:17.290Z,99570.00
2019-03-01T05:23:53.096Z,99578.00
2019-03-01T05:26:35.004Z,99576.00
2019-03-01T05:29:17.829Z,99566.00
2019-03-01T05:31:54.081Z,99575.00
2019-03-01T05:34:36.201Z,99571.00
2019-03-01T05:37:19.450Z,99572.00
2019-03-01T05:40:09.043Z,99586.00
2019-03-01T05:42:45.598Z,99575.00
2019-03-01T05:45:33.982Z,99591.00
2019-03-01T05:48:16.479Z,99592.00
2019-03-01T05:50:52.348Z,99594.00
2019-03-01T05:53:35.302Z,99606.00
2019-03-01T05:56:18.075Z,99610.00
2019-03-01T05:58:54.213Z,99615.00
2019-03-01T06:01:42.176Z,99609.00
2019-03-01T06:04:45.176Z,99612.00
2019-03-01T06:07:51.825Z,99610.00
2019-03-01T06:10:43.712Z,99609.00
2019-03-01T06:13:58.154Z,99615.00
2019-03-01T06:16:48.846Z,99618.00
2019-03-01T06:19:57.064Z,99610.00
2019-03-01T06:22:50.075Z,99615.00
2019-03-01T06:25:34.192Z,99618.00
2019-03-01T06:28:31.149Z,99620.00
2019-03-01T06:31:50.100Z,99631.00
2019-03-01T06:34:49.535Z,99621.00
2019-03-01T06:37:51.690Z,99632.00
2019-03-01T06:40:58.124Z,99621.00
2019-03-01T06:44:09.397Z,99625.00
2019-03-01T06:47:21.683Z,99634.00
2019-03-01T06:50:22.406Z,99658.00
2019-03-01T06:52:52.065Z,99629.00
2019-03-01T06:55:42.053Z,99631.00
2019-03-01T06:58:32.479Z,99633.00
2019-03-01T07:01:10.213Z,99635.00
2019-03-01T07:03:54.878Z,99627.00
2019-03-01T07:06:37.665Z,99629.00
2019-03-01T07:09:21.438Z,99628.00
2019-03-01T07:11:57.059Z,99642.00
2019-03-01T07:14:40.235Z,99639.00
2019-03-01T07:17:15.944Z,99640.00
2019-03-01T07:19:52.067Z,99639.00
2019-03-01T07:22:41.386Z,99653.00
2019-03-01T07:25:30.485Z,99647.00
2019-03-01T07:28:12.899Z,99652.00
2019-03-01T07:30:55.346Z,99658.00
2019-03-01T07:33:37.965Z,99654.00
2019-03-01T07:36:14.175Z,99658.00
2019-03-01T07:38:55.920Z,99664.00
2019-03-01T07:41:32.077Z,99663.00
2019-03-01T07:44:15.073Z,99682.00
2019-03-01T07:46:59.176Z,99677.00
2019-03-01T07:49:35.722Z,99675.00
2019-03-01T07:52:18.142Z,99675.00
2019-03-01T07:54:54.715Z,99669.00
2019-03-01T07:57:31.573Z,99674.00
2019-03-01T08:00:14.909Z,99681.00
2019-03-01T08:02:57.012Z,99689.00
2019-03-01T08:05:46.764Z,99690.00
2019-03-01T08:08:29.311Z,99692.00
2019-03-01T08:11:05.890Z,99702.00
2019-03-01T08:13:49.447Z,99707.00
2019-03-01T08:16:26.741Z,99708.00
2019-03-01T08:19:22.610Z,99712.00
2019-03-01T08:22:01.230Z,99706.00
2019-03-01T08:24:46.664Z,99718.00
2019-03-01T08:27:27.844Z,99717.00
2019-03-01T08:30:06.971Z,99712.00
2019-03-01T08:32:47.954Z,99720.00
2019-03-01T08:35:28.325Z,99717.00
2019-03-01T08:38:11.236Z,99724.00
2019-03-01T08:40:49.941Z,99716.00
2019-03-01T08:43:31.284Z,99720.00
2019-03-01T08:46:20.615Z,99724.00
2019-03-01T08:49:06.702Z,99728.00
2019-03-01T08:51:47.885Z,99730.00
2019-03-01T08:54:31.071Z,99732.00
2019-03-01T08:57:07.103Z,99737.00
2019-03-01T08:59:56.638Z,99739.00
2019-03-01T09:02:40.141Z,99739.00
2019-03-01T09:05:19.327Z,99736.00
2019-03-01T09:08:01.798Z,99739.00
2019-03-01T09:10:38.465Z,99748.00
2019-03-01T09:13:21.489Z,99748.00
2019-03-01T09:16:03.588Z,99752.00
2019-03-01T09:18:40.109Z,99750.00
2019-03-01T09:21:23.017Z,99747.00
2019-03-01T09:23:55.005Z,99756.00
2019-03-01T09:26:30.404Z,99753.00
2019-03-01T09:29:06.291Z,99753.00
2019-03-01T09:31:50.775Z,99752.00
2019-03-01T09:34:40.406Z,99760.00
2019-03-01T09:37:32.505Z,99760.00
2019-03-01T09:40:14.987Z,99757.00
2019-03-01T09:42:52.315Z,99768.00
2019-03-01T09:45:36.584Z,99769.00
2019-03-01T09:48:26.282Z,99769.00
2019-03-01T09:51:10.679Z,99768.00
2019-03-01T09:53:46.107Z,99769.00
2019-03-01T09:56:28.724Z,99767.00
2019-03-01T09:59:10.830Z,99762.00
2019-03-01T10:01:53.647Z,99768.00
2019-03-01T10:04:29.495Z,99769.00
2019-03-01T10:07:25.549Z,99765.00
2019-03-01T10:10:14.964Z,99766.00
2019-03-01T10:13:03.985Z,99767.00
2019-03-01T10:15:39.531Z,99774.00
2019-03-01T10:18:22.154Z,99774.00
2019-03-01T10:21:10.829Z,99777.00
2019-03-01T10:23:53.384Z,99785.00
2019-03-01T10:26:36.984Z,99784.00
2019-03-01T10:29:26.328Z,99783.00
2019-03-01T10:32:02.513Z,99796.00
2019-03-01T10:34:45.065Z,99779.00
2019-03-01T10:37:28.322Z,99788.00
2019-03-01T10:40:04.628Z,99784.00
2019-03-01T10:42:53.368Z,99787.00
2019-03-01T10:45:44.618Z,99792.00
2019-03-01T10:48:27.486Z,99794.00
2019-03-01T10:51:16.444Z,99792.00
2019-03-01T10:54:05.841Z,99786.00
2019-03-01T10:56:49.061Z,99797.00
2019-03-01T10:59:25.135Z,99794.00
2019-03-01T11:02:07.392Z,99805.00
2019-03-01T11:04:43.772Z,99812.00
2019-03-01T11:07:27.088Z,99804.00
2019-03-01T11:10:02.944Z,99810.00
2019-03-01T11:12:45.810Z,99818.00
2019-03-01T11:15:35.040Z,99821.00
2019-03-01T11:18:17.533Z,99829.00
2019-03-01T11:21:00.127Z,99828.00
2019-03-01T11:23:35.907Z,99841.00
2019-03-01T11:26:18.570Z,99834.00
2019-03-01T11:29:01.184Z,99837.00
2019-03-01T11:31:37.108Z,99838.00
2019-03-01T11:34:26.747Z,99833.00
2019-03-01T11:37:09.485Z,99835.00
2019-03-01T11:39:52.055Z,99829.00
2019-03-01T11:42:41.410Z,99833.00
2019-03-01T11:45:24.809Z,99845.00
2019-03-01T11:48:07.251Z,99841.00
2019-03-01T11:50:49.837Z,99840.00
2019-03-01T11:53:25.357Z,99831.00
2019-03-01T11:56:07.270Z,99839.00
2019-03-01T11:58:43.726Z,99838.00
2019-03-01T12:01:25.581Z,99841.00
2019-03-01T12:04:01.927Z,99845.00
2019-03-01T12:06:44.864Z,99846.00
2019-03-01T12:09:21.161Z,99847.00
2019-03-01T12:12:03.948Z,99844.00
2019-03-01T12:14:40.057Z,99850.00
2019-03-01T12:17:22.968Z,99854.00
2019-03-01T12:20:05.978Z,99840.00
2019-03-01T12:22:47.860Z,99848.00
2019-03-01T12:25:30.797Z,99851.00
2019-03-01T12:28:13.531Z,99857.00
2019-03-01T12:30:55.901Z,99858.00
2019-03-01T12:33:38.608Z,99854.00
2019-03-01T12:36:20.698Z,99856.00
2019-03-01T12:39:03.678Z,99859.00
2019-03-01T12:41:53.045Z,99861.00
2019-03-01T12:44:35.253Z,99858.00
2019-03-01T12:47:17.969Z,99875.00
2019-03-01T12:50:06.978Z,99876.00
2019-03-01T12:52:49.701Z,99881.00
2019-03-01T12:55:35.030Z,99876.00
2019-03-01T12:58:19.619Z,99878.00
2019-03-01T13:00:55.777Z,99878.00
2019-03-01T13:03:40.635Z,99872.00
2019-03-01T13:06:26.508Z,99882.00
2019-03-01T13:09:04.526Z,99896.00
2019-03-01T13:11:53.897Z,99888.00
2019-03-01T13:14:36.711Z,99887.00
2019-03-01T13:17:13.608Z,99893.00
2019-03-01T13:19:57.586Z,99893.00
2019-03-01T13:22:40.635Z,99893.00
2019-03-01T13:25:25.887Z,99895.00
2019-03-01T13:28:08.585Z,99900.00
2019-03-01T13:30:57.753Z,99903.00
2019-03-01T13:33:34.784Z,99915.00
2019-03-01T13:36:13.263Z,99915.00
2019-03-01T13:38:42.668Z,99917.00
2019-03-01T13:41:18.955Z,99907.00
2019-03-01T13:43:55.559Z,99910.00
2019-03-01T13:46:33.456Z,99919.00
2019-03-01T13:49:15.537Z,99925.00
2019-03-01T13:51:58.328Z,99926.00
2019-03-01T13:54:47.927Z,99929.00
2019-03-01T13:57:38.181Z,99932.00
2019-03-01T14:00:32.981Z,99937.00
2019-03-01T14:03:08.566Z,99926.00
2019-03-01T14:05:54.546Z,99934.00
2019-03-01T14:08:37.485Z,99936.00
2019-03-01T14:11:15.176Z,99941.00
2019-03-01T14:13:59.657Z,99937.00
2019-03-01T14:16:35.439Z,99945.00
2019-03-01T14:19:18.034Z,99949.00
2019-03-01T14:22:01.496Z,99951.00
2019-03-01T14:24:51.304Z,99950.00
2019-03-01T14:27:33.936Z,99952.00
2019-03-01T14:30:16.452Z,99954.00
2019-03-01T14:32:46.261Z,99960.00
2019-03-01T14:35:25.832Z,99968.00
2019-03-01T14:38:00.633Z,99966.00
2019-03-01T14:40:43.101Z,99966.00
2019-03-01T14:43:26.123Z,99971.00
2019-03-01T14:46:09.990Z,99974.00
2019-03-01T14:48:52.431Z,99978.00
2019-03-01T14:51:28.348Z,99975.00
2019-03-01T14:54:18.109Z,99968.00
2019-03-01T14:57:09.909Z,99973.00
2019-03-01T14:59:59.569Z,99972.00
2019-03-01T15:02:52.525Z,99958.00
2019-03-01T15:05:29.101Z,99968.00
2019-03-01T15:08:12.623Z,99976.00
2019-03-01T15:10:48.512Z,99974.00
2019-03-01T15:13:34.747Z,99972.00
2019-03-01T15:16:22.318Z,99974.00
2019-03-01T15:19:08.171Z,99979.00
2019-03-01T15:21:42.258Z,99977.00
2019-03-01T15:24:24.263Z,99998.00
2019-03-01T15:27:04.257Z,99988.00
2019-03-01T15:29:44.804Z,99979.00
2019-03-01T15:32:20.769Z,99977.00
2019-03-01T15:35:04.545Z,99974.00
2019-03-01T15:37:48.750Z,99981.00
2019-03-01T15:40:27.817Z,99976.00
2019-03-01T15:43:17.326Z,99982.00
2019-03-01T15:46:00.797Z,99984.00
2019-03-01T15:48:43.393Z,99991.00
2019-03-01T15:51:19.212Z,99992.00
2019-03-01T15:54:02.003Z,100012.00
2019-03-01T15:56:44.677Z,100004.00
2019-03-01T15:59:27.675Z,100005.00
2019-03-01T16:02:05.132Z,100002.00
2019-03-01T16:04:55.293Z,100003.00
2019-03-01T16:07:44.850Z,100002.00
2019-03-01T16:10:36.185Z,100012.00
2019-03-01T16:13:18.450Z,100010.00
2019-03-01T16:15:54.455Z,100007.00
2019-03-01T16:18:38.998Z,100008.00
2019-03-01T16:21:21.748Z,100022.00
2019-03-01T16:24:11.472Z,100015.00
2019-03-01T16:27:00.732Z,100030.00
2019-03-01T16:29:38.772Z,100033.00
2019-03-01T16:32:21.954Z,100042.00
2019-03-01T16:35:05.154Z,100039.00
2019-03-01T16:37:41.557Z,100053.00
2019-03-01T16:40:18.014Z,100065.00
2019-03-01T16:42:54.676Z,100068.00
2019-03-01T16:45:30.486Z,100073.00
2019-03-01T16:48:13.589Z,100080.00
2019-03-01T16:51:03.597Z,100080.00
2019-03-01T16:53:46.321Z,100096.00
2019-03-01T16:56:28.691Z,100094.00
2019-03-01T16:59:11.537Z,100091.00
2019-03-01T17:01:48.113Z,100092.00
2019-03-01T17:04:37.798Z,100096.00
2019-03-01T17:07:13.283Z,100094.00
2019-03-01T17:09:55.831Z,100091.00
2019-03-01T17:12:31.559Z,100094.00
2019-03-01T17:15:14.667Z,100105.00
2019-03-01T17:17:51.791Z,100115.00
2019-03-01T17:20:37.452Z,100098.00
2019-03-01T17:23:11.485Z,100114.00
2019-03-01T17:26:00.192Z,100116.00
2019-03-01T17:28:43.486Z,100124.00
2019-03-01T17:31:19.551Z,100117.00
2019-03-01T17:34:04.439Z,100123.00
2019-03-01T17:36:40.494Z,100123.00
2019-03-01T17:39:25.189Z,100123.00
2019-03-01T17:42:01.785Z,100134.00
2019-03-01T17:44:37.597Z,100131.00
2019-03-01T17:47:19.855Z,100137.00
2019-03-01T17:50:02.010Z,100145.00
2019-03-01T17:52:38.701Z,100147.00
2019-03-01T17:55:24.793Z,100146.00
2019-03-01T17:58:14.963Z,100145.00
2019-03-01T18:00:50.939Z,100143.00
2019-03-01T18:03:33.231Z,100140.00
2019-03-01T18:06:13.028Z,100147.00
2019-03-01T18:08:47.908Z,100137.00
2019-03-01T18:11:26.127Z,100141.00
2019-03-01T18:14:08.572Z,100139.00
2019-03-01T18:16:44.514Z,100138.00
2019-03-01T18:19:27.701Z,100142.00
2019-03-01T18:22:04.213Z,100145.00
2019-03-01T18:24:40.649Z,100135.00
2019-03-01T18:27:17.998Z,100143.00
2019-03-01T18:30:01.636Z,100136.00
2019-03-01T18:32:41.731Z,100142.00
2019-03-01T18:35:29.015Z,100135.00
2019-03-01T18:38:14.510Z,100135.00
2019-03-01T18:40:43.974Z,100146.00
2019-03-01T18:43:27.020Z,100142.00
2019-03-01T18:46:04.385Z,100140.00
2019-03-01T18:48:47.783Z,100142.00
2019-03-01T18:51:24.553Z,100147.00
2019-03-01T18:54:13.924Z,100150.00
2019-03-01T18:57:04.489Z,100147.00
2019-03-01T18:59:56.416Z,100147.00
2019-03-01T19:02:44.944Z,100160.00
2019-03-01T19:05:27.847Z,100163.00
2019-03-01T19:08:11.431Z,100163.00
2019-03-01T19:11:02.907Z,100167.00
2019-03-01T19:13:55.108Z,100167.00
2019-03-01T19:16:44.903Z,100177.00
2019-03-01T19:19:24.438Z,100206.00
2019-03-01T19:22:05.492Z,100180.00
2019-03-01T19:24:43.275Z,100186.00
2019-03-01T19:27:26.862Z,100193.00
2019-03-01T19:30:15.774Z,100195.00
2019-03-01T19:32:58.970Z,100197.00
2019-03-01T19:35:35.278Z,100204.00
2019-03-01T19:38:11.644Z,100195.00
2019-03-01T19:40:54.225Z,100196.00
2019-03-01T19:43:30.299Z,100198.00
2019-03-01T19:46:12.672Z,100210.00
2019-03-01T19:48:57.722Z,100217.00
2019-03-01T19:51:37.156Z,100213.00
2019-03-01T19:54:17.725Z,100206.00
2019-03-01T19:56:53.474Z,100214.00
2019-03-01T19:59:35.969Z,100226.00
2019-03-01T20:02:05.876Z,100229.00
2019-03-01T20:04:48.192Z,100224.00
2019-03-01T20:07:31.671Z,100237.00
2019-03-01T20:10:07.819Z,100222.00
2019-03-01T20:12:50.634Z,100216.00
2019-03-01T20:15:33.068Z,100224.00
2019-03-01T20:18:15.737Z,100231.00
2019-03-01T20:20:58.279Z,100234.00
2019-03-01T20:23:34.283Z,100239.00
2019-03-01T20:26:16.849Z,100231.00
2019-03-01T20:29:06.172Z,100219.00
2019-03-01T20:31:42.249Z,100237.00
2019-03-01T20:34:25.124Z,100224.00
2019-03-01T20:37:15.547Z,100228.00
2019-03-01T20:39:57.639Z,100232.00
2019-03-01T20:42:33.681Z,100231.00
2019-03-01T20:45:25.962Z,100241.00
2019-03-01T20:48:08.258Z,100241.00
2019-03-01T20:50:58.126Z,100241.00
2019-03-01T20:53:49.483Z,100240.00
2019-03-01T20:56:31.913Z,100228.00
2019-03-01T20:59:07.707Z,100232.00
2019-03-01T21:01:49.474Z,100237.00
2019-03-01T21:04:32.648Z,100230.00
2019-03-01T21:07:08.686Z,100238.00
2019-03-01T21:09:53.554Z,100181.00
2019-03-01T21:12:29.237Z,100247.00
2019-03-01T21:15:14.069Z,100251.00
2019-03-01T21:17:58.517Z,100247.00
2019-03-01T21:20:50.482Z,100255.00
2019-03-01T21:23:25.616Z,100254.00
2019-03-01T21:26:12.126Z,100256.00
2019-03-01T21:28:53.956Z,100251.00
2019-03-01T21:31:37.138Z,100254.00
2019-03-01T21:34:19.866Z,100257.00
2019-03-01T21:37:03.992Z,100267.00
2019-03-01T21:39:46.822Z,100258.00
2019-03-01T21:42:29.734Z,100265.00
2019-03-01T21:45:05.818Z,100263.00
2019-03-01T21:47:44.650Z,100262.00
2019-03-01T21:50:26.299Z,100264.00
2019-03-01T21:53:08.451Z,100269.00
2019-03-01T21:55:50.992Z,100270.00
2019-03-01T21:58:42.013Z,100272.00
2019-03-01T22:01:31.860Z,100266.00
2019-03-01T22:04:07.453Z,100263.00
2019-03-01T22:06:50.474Z,100269.00
2019-03-01T22:09:33.230Z,100280.00
2019-03-01T22:12:09.413Z,100288.00
2019-03-01T22:14:52.005Z,100282.00
2019-03-01T22:17:28.346Z,100277.00
2019-03-01T22:20:13.793Z,100288.00
2019-03-01T22:23:03.145Z,100287.00
2019-03-01T22:25:45.208Z,100275.00
2019-03-01T22:28:21.607Z,100281.00
2019-03-01T22:31:03.445Z,100279.00
2019-03-01T22:33:39.592Z,100286.00
2019-03-01T22:36:22.216Z,100281.00
2019-03-01T22:39:04.488Z,100285.00
2019-03-01T22:41:53.389Z,100284.00
2019-03-01T22:44:43.782Z,100279.00
2019-03-01T22:47:26.915Z,100280.00
2019-03-01T22:50:04.041Z,100293.00
2019-03-01T22:52:46.816Z,100289.00
2019-03-01T22:55:26.935Z,100297.00
2019-03-01T22:58:03.398Z,100299.00
2019-03-01T23:00:57.548Z,100298.00
2019-03-01T23:03:38.557Z,100295.00
2019-03-01T23:06:21.070Z,100298.00
2019-03-01T23:08:56.808Z,100297.00
2019-03-01T23:11:39.583Z,100297.00
2019-03-01T23:14:15.135Z,100302.00
2019-03-01T23:16:57.064Z,100307.00
2019-03-01T23:19:33.172Z,100300.00
2019-03-01T23:22:11.039Z,100307.00
2019-03-01T23:25:00.779Z,100304.00
2019-03-01T23:27:42.870Z,100298.00
2019-03-01T23:30:20.168Z,100306.00
2019-03-01T23:33:09.014Z,100306.00
2019-03-01T23:35:44.716Z,100309.00
2019-03-01T23:38:27.253Z,100304.00
2019-03-01T23:41:16.551Z,100307.00
2019-03-01T23:44:02.805Z,100302.00
2019-03-01T23:46:43.711Z,100298.00
2019-03-01T23:49:26.067Z,100304.00
2019-03-01T23:52:15.191Z,100317.00
2019-03-01T23:54:51.777Z,100313.00
2019-03-01T23:57:37.904Z,100307.00
